createdAt,value
2023-05-18T00:00:45.567Z,501.00
2023-05-18T00:01:45.570Z,501.00
2023-05-18T00:02:45.640Z,500.00
2023-05-18T00:03:45.744Z,502.00
2023-05-18T00:04:45.764Z,503.00
2023-05-18T00:05:45.630Z,504.00
2023-05-18T00:06:45.672Z,505.00
2023-05-18T00:07:45.684Z,507.00
2023-05-18T00:08:45.698Z,507.00
2023-05-18T00:09:45.855Z,506.00
2023-05-18T00:10:45.750Z,507.00
2023-05-18T00:11:45.778Z,505.00
2023-05-18T00:12:45.764Z,505.00
2023-05-18T00:13:45.809Z,507.00
2023-05-18T00:14:45.797Z,508.00
2023-05-18T00:15:45.835Z,509.00
2023-05-18T00:16:45.969Z,511.00
2023-05-18T00:17:45.890Z,512.00
2023-05-18T00:18:45.889Z,512.00
2023-05-18T00:19:45.872Z,511.00
2023-05-18T00:20:45.870Z,512.00
2023-05-18T00:21:45.897Z,512.00
2023-05-18T00:23:21.694Z,514.00
2023-05-18T00:24:22.382Z,513.00
2023-05-18T00:25:21.675Z,513.00
2023-05-18T00:26:21.692Z,512.00
2023-05-18T00:27:21.700Z,510.00
2023-05-18T00:28:21.657Z,512.00
2023-05-18T00:29:21.674Z,514.00
2023-05-18T00:30:21.671Z,511.00
2023-05-18T00:31:21.721Z,510.00
2023-05-18T00:32:21.621Z,510.00
2023-05-18T00:33:21.625Z,511.00
2023-05-18T00:34:21.628Z,511.00
2023-05-18T00:35:21.613Z,511.00
2023-05-18T00:36:21.615Z,511.00
2023-05-18T00:37:21.624Z,511.00
2023-05-18T00:38:21.593Z,513.00
2023-05-18T00:39:21.595Z,510.00
2023-05-18T00:40:21.585Z,509.00
2023-05-18T00:41:21.578Z,506.00
2023-05-18T00:42:21.564Z,505.00
2023-05-18T00:43:21.633Z,502.00
2023-05-18T00:44:21.577Z,503.00
2023-05-18T00:45:21.578Z,506.00
2023-05-18T00:46:21.576Z,507.00
2023-05-18T00:47:21.563Z,507.00
2023-05-18T00:48:21.580Z,505.00
2023-05-18T00:49:21.528Z,503.00
2023-05-18T00:50:21.554Z,504.00
2023-05-18T00:51:21.523Z,504.00
2023-05-18T00:52:21.489Z,504.00
2023-05-18T00:53:21.495Z,506.00
2023-05-18T00:54:21.494Z,507.00
2023-05-18T00:55:21.463Z,507.00
2023-05-18T00:56:21.471Z,505.00
2023-05-18T00:57:21.485Z,504.00
2023-05-18T00:58:21.459Z,500.00
2023-05-18T00:59:21.443Z,498.00
2023-05-18T01:00:21.441Z,498.00
2023-05-18T01:01:21.497Z,499.00
2023-05-18T01:02:21.452Z,501.00
2023-05-18T01:03:21.497Z,500.00
2023-05-18T01:04:21.468Z,500.00
2023-05-18T01:05:21.408Z,501.00
2023-05-18T01:06:21.406Z,499.00
2023-05-18T01:07:21.395Z,498.00
2023-05-18T01:08:21.389Z,501.00
2023-05-18T01:09:21.362Z,502.00
2023-05-18T01:10:21.370Z,503.00
2023-05-18T01:11:21.418Z,502.00
2023-05-18T01:12:21.339Z,502.00
2023-05-18T01:13:21.362Z,503.00
2023-05-18T01:14:21.734Z,505.00
2023-05-18T01:15:21.380Z,504.00
2023-05-18T01:16:21.339Z,503.00
2023-05-18T01:17:21.407Z,501.00
2023-05-18T01:18:21.332Z,501.00
2023-05-18T01:19:21.911Z,497.00
2023-05-18T01:20:21.302Z,498.00
2023-05-18T01:21:21.316Z,499.00
2023-05-18T01:22:21.322Z,501.00
2023-05-18T01:23:21.287Z,500.00
2023-05-18T01:24:21.305Z,498.00
2023-05-18T01:25:21.276Z,497.00
2023-05-18T01:26:21.263Z,500.00
2023-05-18T01:27:21.279Z,500.00
2023-05-18T01:28:21.258Z,501.00
2023-05-18T01:29:21.758Z,499.00
2023-05-18T01:31:17.472Z,522.00
2023-05-18T01:32:17.428Z,519.00
2023-05-18T01:33:17.424Z,520.00
2023-05-18T01:34:17.401Z,515.00
2023-05-18T01:35:17.413Z,513.00
2023-05-18T01:36:17.365Z,510.00
2023-05-18T01:37:17.393Z,510.00
2023-05-18T01:38:17.365Z,508.00
2023-05-18T01:39:17.334Z,505.00
2023-05-18T01:40:17.426Z,504.00
2023-05-18T01:41:17.378Z,502.00
2023-05-18T01:42:17.353Z,498.00
2023-05-18T01:43:17.347Z,497.00
2023-05-18T01:44:17.378Z,496.00
2023-05-18T01:45:17.345Z,498.00
2023-05-18T01:46:17.328Z,498.00
2023-05-18T01:47:17.306Z,499.00
2023-05-18T01:48:17.296Z,500.00
2023-05-18T01:49:17.273Z,499.00
2023-05-18T01:50:17.285Z,501.00
2023-05-18T01:51:17.275Z,503.00
2023-05-18T01:52:17.264Z,501.00
2023-05-18T01:53:17.285Z,499.00
2023-05-18T01:54:17.256Z,496.00
2023-05-18T01:55:17.268Z,498.00
2023-05-18T01:56:17.242Z,498.00
2023-05-18T01:57:17.213Z,498.00
2023-05-18T01:58:17.236Z,502.00
2023-05-18T01:59:17.250Z,502.00
2023-05-18T02:00:17.417Z,503.00
2023-05-18T02:01:17.243Z,502.00
2023-05-18T02:02:17.254Z,500.00
2023-05-18T02:03:17.329Z,499.00
2023-05-18T02:04:17.279Z,499.00
2023-05-18T02:05:17.217Z,500.00
2023-05-18T02:06:17.233Z,500.00
2023-05-18T02:07:17.195Z,499.00
2023-05-18T02:08:17.186Z,498.00
2023-05-18T02:09:17.141Z,500.00
2023-05-18T02:10:17.141Z,500.00
2023-05-18T02:11:17.153Z,502.00
2023-05-18T02:12:17.151Z,502.00
2023-05-18T02:13:17.124Z,501.00
2023-05-18T02:14:17.159Z,501.00
2023-05-18T02:15:17.137Z,498.00
2023-05-18T02:16:17.148Z,500.00
2023-05-18T02:17:17.092Z,499.00
2023-05-18T02:18:17.087Z,495.00
2023-05-18T02:19:17.137Z,497.00
2023-05-18T02:20:17.418Z,496.00
2023-05-18T02:21:17.067Z,494.00
2023-05-18T02:22:17.088Z,495.00
2023-05-18T02:23:17.054Z,493.00
2023-05-18T02:24:17.078Z,494.00
2023-05-18T02:25:17.460Z,494.00
2023-05-18T02:26:17.036Z,494.00
2023-05-18T02:27:17.053Z,493.00
2023-05-18T02:28:17.046Z,492.00
2023-05-18T02:29:17.021Z,493.00
2023-05-18T02:30:17.460Z,495.00
2023-05-18T02:31:17.064Z,494.00
2023-05-18T02:32:17.047Z,494.00
2023-05-18T02:33:17.020Z,494.00
2023-05-18T02:34:17.053Z,496.00
2023-05-18T02:35:17.001Z,497.00
2023-05-18T02:36:17.004Z,497.00
2023-05-18T02:37:16.973Z,495.00
2023-05-18T02:38:16.980Z,497.00
2023-05-18T02:39:16.971Z,495.00
2023-05-18T02:40:16.982Z,495.00
2023-05-18T02:41:16.942Z,496.00
2023-05-18T02:42:16.940Z,497.00
2023-05-18T02:43:16.961Z,500.00
2023-05-18T02:44:16.917Z,502.00
2023-05-18T02:45:17.097Z,501.00
2023-05-18T02:46:17.002Z,500.00
2023-05-18T02:47:16.906Z,498.00
2023-05-18T02:48:16.936Z,499.00
2023-05-18T02:49:16.904Z,499.00
2023-05-18T02:50:16.898Z,500.00
2023-05-18T02:51:16.889Z,497.00
2023-05-18T02:52:16.918Z,496.00
2023-05-18T02:53:16.876Z,496.00
2023-05-18T02:54:16.885Z,494.00
2023-05-18T02:55:16.881Z,494.00
2023-05-18T02:56:16.860Z,494.00
2023-05-18T02:57:16.883Z,492.00
2023-05-18T02:58:16.840Z,492.00
2023-05-18T02:59:16.833Z,489.00
2023-05-18T03:00:16.936Z,487.00
2023-05-18T03:01:17.013Z,487.00
2023-05-18T03:02:16.952Z,489.00
2023-05-18T03:03:17.022Z,489.00
2023-05-18T03:04:17.016Z,492.00
2023-05-18T03:05:16.968Z,493.00
2023-05-18T03:06:17.005Z,493.00
2023-05-18T03:07:17.042Z,493.00
2023-05-18T03:08:17.028Z,493.00
2023-05-18T03:09:17.070Z,494.00
2023-05-18T03:10:17.453Z,493.00
2023-05-18T03:11:17.143Z,493.00
2023-05-18T03:12:17.179Z,495.00
2023-05-18T03:13:17.186Z,496.00
2023-05-18T03:14:17.223Z,495.00
2023-05-18T03:15:17.228Z,496.00
2023-05-18T03:16:17.279Z,498.00
2023-05-18T03:17:17.236Z,497.00
2023-05-18T03:18:17.280Z,495.00
2023-05-18T03:19:17.422Z,494.00
2023-05-18T03:20:17.349Z,495.00
2023-05-18T03:21:17.360Z,494.00
2023-05-18T03:22:17.402Z,493.00
2023-05-18T03:23:17.445Z,496.00
2023-05-18T03:24:17.449Z,496.00
2023-05-18T03:25:17.477Z,495.00
2023-05-18T03:26:17.510Z,492.00
2023-05-18T03:27:17.591Z,490.00
2023-05-18T03:28:17.543Z,491.00
2023-05-18T03:29:17.588Z,492.00
2023-05-18T03:30:17.593Z,492.00
2023-05-18T03:31:17.655Z,493.00
2023-05-18T03:32:17.650Z,496.00
2023-05-18T03:33:17.738Z,495.00
2023-05-18T03:34:17.688Z,495.00
2023-05-18T03:35:17.705Z,492.00
2023-05-18T03:36:17.734Z,495.00
2023-05-18T03:37:17.735Z,496.00
2023-05-18T03:38:17.801Z,494.00
2023-05-18T03:39:17.798Z,496.00
2023-05-18T03:40:17.829Z,495.00
2023-05-18T03:41:17.898Z,495.00
2023-05-18T03:42:17.907Z,497.00
2023-05-18T03:43:17.964Z,496.00
2023-05-18T03:44:17.932Z,499.00
2023-05-18T03:45:17.978Z,499.00
2023-05-18T03:46:18.043Z,499.00
2023-05-18T03:47:18.013Z,500.00
2023-05-18T03:48:18.059Z,498.00
2023-05-18T03:49:18.076Z,500.00
2023-05-18T03:50:18.106Z,500.00
2023-05-18T03:51:18.144Z,499.00
2023-05-18T03:52:18.144Z,500.00
2023-05-18T03:53:18.196Z,499.00
2023-05-18T03:54:18.204Z,498.00
2023-05-18T03:55:18.235Z,498.00
2023-05-18T03:56:18.262Z,497.00
2023-05-18T03:57:18.291Z,497.00
2023-05-18T03:58:18.268Z,496.00
2023-05-18T03:59:18.305Z,495.00
2023-05-18T04:00:18.448Z,494.00
2023-05-18T04:01:18.345Z,494.00
2023-05-18T04:02:18.408Z,494.00
2023-05-18T04:03:18.447Z,493.00
2023-05-18T04:04:18.712Z,493.00
2023-05-18T04:05:18.463Z,494.00
2023-05-18T04:06:18.445Z,495.00
2023-05-18T04:07:18.502Z,495.00
2023-05-18T04:08:18.514Z,495.00
2023-05-18T04:09:18.540Z,495.00
2023-05-18T04:10:18.954Z,495.00
2023-05-18T04:11:18.607Z,496.00
2023-05-18T04:12:18.583Z,496.00
2023-05-18T04:13:18.592Z,498.00
2023-05-18T04:14:18.606Z,500.00
2023-05-18T04:15:18.963Z,500.00
2023-05-18T04:16:18.761Z,500.00
2023-05-18T04:17:18.684Z,501.00
2023-05-18T04:18:18.734Z,502.00
2023-05-18T04:19:18.727Z,504.00
2023-05-18T04:20:18.791Z,504.00
2023-05-18T04:21:18.817Z,503.00
2023-05-18T04:22:18.848Z,502.00
2023-05-18T04:23:18.884Z,501.00
2023-05-18T04:24:18.859Z,498.00
2023-05-18T04:25:18.969Z,497.00
2023-05-18T04:26:18.935Z,497.00
2023-05-18T04:27:18.954Z,498.00
2023-05-18T04:28:18.981Z,497.00
2023-05-18T04:29:19.015Z,497.00
2023-05-18T04:30:19.463Z,496.00
2023-05-18T04:31:19.084Z,495.00
2023-05-18T04:32:19.234Z,493.00
2023-05-18T04:33:19.121Z,491.00
2023-05-18T04:34:19.153Z,491.00
2023-05-18T04:35:19.483Z,490.00
2023-05-18T04:36:20.863Z,491.00
2023-05-18T04:37:19.225Z,492.00
2023-05-18T04:38:19.217Z,491.00
2023-05-18T04:39:19.221Z,490.00
2023-05-18T04:40:19.500Z,492.00
2023-05-18T04:41:19.290Z,494.00
2023-05-18T04:42:19.314Z,494.00
2023-05-18T04:43:19.351Z,493.00
2023-05-18T04:44:19.335Z,492.00
2023-05-18T04:45:19.548Z,492.00
2023-05-18T04:46:19.466Z,494.00
2023-05-18T04:47:19.412Z,495.00
2023-05-18T04:48:19.426Z,495.00
2023-05-18T04:49:19.468Z,497.00
2023-05-18T04:50:20.008Z,498.00
2023-05-18T04:51:19.508Z,497.00
2023-05-18T04:52:19.532Z,497.00
2023-05-18T04:53:19.568Z,498.00
2023-05-18T04:54:19.593Z,499.00
2023-05-18T04:55:19.994Z,500.00
2023-05-18T04:56:19.655Z,500.00
2023-05-18T04:57:19.691Z,499.00
2023-05-18T04:58:19.737Z,499.00
2023-05-18T04:59:19.770Z,500.00
2023-05-18T05:00:19.995Z,500.00
2023-05-18T05:01:19.877Z,501.00
2023-05-18T05:02:19.870Z,500.00
2023-05-18T05:03:19.905Z,500.00
2023-05-18T05:04:19.866Z,498.00
2023-05-18T05:05:19.995Z,497.00
2023-05-18T05:06:19.952Z,495.00
2023-05-18T05:07:19.958Z,495.00
2023-05-18T05:08:20.000Z,493.00
2023-05-18T05:09:20.020Z,490.00
2023-05-18T05:10:20.497Z,491.00
2023-05-18T05:11:20.032Z,491.00
2023-05-18T05:12:20.056Z,492.00
2023-05-18T05:13:20.088Z,493.00
2023-05-18T05:14:20.099Z,492.00
2023-05-18T05:15:20.175Z,494.00
2023-05-18T05:16:20.356Z,495.00
2023-05-18T05:17:20.204Z,498.00
2023-05-18T05:18:20.216Z,498.00
2023-05-18T05:19:20.394Z,497.00
2023-05-18T05:20:20.494Z,498.00
2023-05-18T05:21:20.342Z,499.00
2023-05-18T05:22:20.352Z,499.00
2023-05-18T05:23:20.355Z,499.00
2023-05-18T05:24:20.385Z,495.00
2023-05-18T05:25:20.479Z,493.00
2023-05-18T05:26:20.429Z,491.00
2023-05-18T05:27:20.434Z,492.00
2023-05-18T05:28:20.464Z,494.00
2023-05-18T05:29:20.488Z,497.00
2023-05-18T05:30:20.529Z,494.00
2023-05-18T05:31:20.645Z,493.00
2023-05-18T05:32:20.573Z,494.00
2023-05-18T05:33:20.597Z,497.00
2023-05-18T05:34:20.618Z,498.00
2023-05-18T05:35:20.666Z,497.00
2023-05-18T05:36:20.648Z,497.00
2023-05-18T05:37:20.726Z,496.00
2023-05-18T05:38:20.733Z,495.00
2023-05-18T05:39:20.734Z,494.00
2023-05-18T05:40:20.789Z,495.00
2023-05-18T05:41:20.808Z,494.00
2023-05-18T05:42:20.829Z,496.00
2023-05-18T05:43:20.876Z,497.00
2023-05-18T05:44:20.871Z,499.00
2023-05-18T05:45:20.949Z,497.00
2023-05-18T05:46:20.951Z,496.00
2023-05-18T05:47:20.947Z,495.00
2023-05-18T05:48:21.046Z,494.00
2023-05-18T05:49:21.024Z,494.00
2023-05-18T05:50:21.542Z,494.00
2023-05-18T05:51:21.061Z,495.00
2023-05-18T05:52:21.137Z,497.00
2023-05-18T05:53:21.139Z,496.00
2023-05-18T05:54:21.150Z,498.00
2023-05-18T05:55:21.215Z,498.00
2023-05-18T05:56:21.197Z,499.00
2023-05-18T05:57:21.236Z,498.00
2023-05-18T05:58:21.274Z,497.00
2023-05-18T05:59:21.285Z,497.00
2023-05-18T06:00:21.533Z,498.00
2023-05-18T06:01:21.334Z,498.00
2023-05-18T06:02:21.388Z,498.00
2023-05-18T06:03:21.533Z,500.00
2023-05-18T06:04:21.414Z,500.00
2023-05-18T06:05:21.513Z,500.00
2023-05-18T06:06:21.526Z,502.00
2023-05-18T06:07:21.508Z,502.00
2023-05-18T06:08:21.529Z,501.00
2023-05-18T06:09:21.521Z,499.00
2023-05-18T06:10:22.013Z,496.00
2023-05-18T06:11:21.595Z,495.00
2023-05-18T06:12:21.609Z,495.00
2023-05-18T06:13:21.653Z,495.00
2023-05-18T06:14:21.683Z,495.00
2023-05-18T06:15:22.008Z,496.00
2023-05-18T06:16:21.757Z,498.00
2023-05-18T06:17:21.764Z,501.00
2023-05-18T06:18:21.808Z,500.00
2023-05-18T06:19:21.862Z,500.00
2023-05-18T06:20:22.040Z,499.00
2023-05-18T06:21:21.870Z,499.00
2023-05-18T06:22:21.893Z,496.00
2023-05-18T06:23:21.892Z,496.00
2023-05-18T06:24:21.908Z,496.00
2023-05-18T06:25:21.994Z,494.00
2023-05-18T06:26:21.978Z,493.00
2023-05-18T06:27:21.989Z,493.00
2023-05-18T06:28:22.030Z,493.00
2023-05-18T06:29:22.064Z,493.00
2023-05-18T06:30:22.524Z,493.00
2023-05-18T06:31:22.165Z,493.00
2023-05-18T06:32:22.329Z,491.00
2023-05-18T06:33:22.185Z,491.00
2023-05-18T06:34:22.209Z,492.00
2023-05-18T06:35:22.520Z,491.00
2023-05-18T06:36:22.216Z,490.00
2023-05-18T06:37:22.236Z,491.00
2023-05-18T06:38:22.279Z,494.00
2023-05-18T06:39:22.300Z,493.00
2023-05-18T06:40:22.510Z,493.00
2023-05-18T06:41:22.459Z,493.00
2023-05-18T06:42:22.354Z,494.00
2023-05-18T06:43:22.399Z,494.00
2023-05-18T06:44:22.412Z,495.00
2023-05-18T06:45:22.623Z,495.00
2023-05-18T06:46:22.626Z,495.00
2023-05-18T06:47:22.580Z,495.00
2023-05-18T06:48:22.561Z,494.00
2023-05-18T06:49:22.597Z,492.00
2023-05-18T06:50:23.011Z,491.00
2023-05-18T06:51:22.626Z,492.00
2023-05-18T06:52:23.539Z,490.00
2023-05-18T06:53:22.681Z,490.00
2023-05-18T06:54:22.728Z,490.00
2023-05-18T06:55:23.034Z,493.00
2023-05-18T06:56:22.757Z,496.00
2023-05-18T06:57:22.822Z,498.00
2023-05-18T06:58:22.810Z,497.00
2023-05-18T06:59:22.824Z,493.00
2023-05-18T07:00:23.010Z,492.00
2023-05-18T07:01:22.954Z,491.00
2023-05-18T07:02:22.960Z,491.00
2023-05-18T07:03:22.980Z,489.00
2023-05-18T07:04:22.969Z,490.00
2023-05-18T07:05:23.027Z,489.00
2023-05-18T07:06:23.012Z,490.00
2023-05-18T07:07:23.041Z,489.00
2023-05-18T07:08:23.054Z,490.00
2023-05-18T07:09:23.054Z,490.00
2023-05-18T07:10:23.525Z,489.00
2023-05-18T07:11:23.125Z,488.00
2023-05-18T07:12:23.168Z,490.00
2023-05-18T07:13:23.151Z,492.00
2023-05-18T07:14:23.185Z,492.00
2023-05-18T07:15:23.510Z,490.00
2023-05-18T07:16:23.362Z,490.00
2023-05-18T07:17:23.316Z,490.00
2023-05-18T07:18:23.290Z,491.00
2023-05-18T07:19:23.518Z,492.00
2023-05-18T07:20:25.876Z,492.00
2023-05-18T07:21:23.338Z,491.00
2023-05-18T07:22:23.335Z,493.00
2023-05-18T07:23:23.319Z,492.00
2023-05-18T07:24:23.350Z,492.00
2023-05-18T07:25:23.599Z,493.00
2023-05-18T07:26:23.311Z,494.00
2023-05-18T07:27:23.324Z,495.00
2023-05-18T07:28:23.296Z,494.00
2023-05-18T07:29:23.306Z,494.00
2023-05-18T07:30:23.554Z,493.00
2023-05-18T07:31:23.340Z,493.00
2023-05-18T07:32:23.264Z,492.00
2023-05-18T07:33:23.253Z,493.00
2023-05-18T07:34:23.259Z,495.00
2023-05-18T07:35:23.528Z,497.00
2023-05-18T07:36:23.248Z,497.00
2023-05-18T07:37:23.227Z,495.00
2023-05-18T07:38:23.254Z,494.00
2023-05-18T07:39:23.214Z,493.00
2023-05-18T07:40:23.514Z,491.00
2023-05-18T07:41:23.211Z,488.00
2023-05-18T07:42:23.244Z,489.00
2023-05-18T07:43:23.230Z,491.00
2023-05-18T07:44:23.205Z,490.00
2023-05-18T07:45:23.508Z,489.00
2023-05-18T07:46:23.280Z,489.00
2023-05-18T07:47:23.210Z,490.00
2023-05-18T07:48:23.202Z,492.00
2023-05-18T07:49:23.157Z,491.00
2023-05-18T07:50:23.558Z,490.00
2023-05-18T07:51:23.184Z,490.00
2023-05-18T07:52:23.140Z,491.00
2023-05-18T07:53:23.117Z,491.00
2023-05-18T07:54:23.138Z,491.00
2023-05-18T07:55:23.509Z,490.00
2023-05-18T07:56:23.105Z,489.00
2023-05-18T07:57:23.123Z,490.00
2023-05-18T07:58:23.068Z,489.00
2023-05-18T07:59:23.086Z,489.00
2023-05-18T08:00:23.083Z,487.00
2023-05-18T08:01:23.095Z,490.00
2023-05-18T08:02:23.078Z,489.00
2023-05-18T08:03:23.162Z,490.00
2023-05-18T08:04:23.107Z,488.00
2023-05-18T08:05:23.071Z,486.00
2023-05-18T08:06:23.033Z,485.00
2023-05-18T08:07:23.015Z,486.00
2023-05-18T08:08:23.024Z,486.00
2023-05-18T08:09:23.038Z,485.00
2023-05-18T08:10:23.043Z,486.00
2023-05-18T08:11:23.005Z,486.00
2023-05-18T08:12:23.015Z,485.00
2023-05-18T08:13:22.974Z,484.00
2023-05-18T08:14:22.990Z,484.00
2023-05-18T08:15:22.963Z,486.00
2023-05-18T08:16:23.065Z,483.00
2023-05-18T08:17:22.979Z,482.00
2023-05-18T08:18:22.971Z,481.00
2023-05-18T08:19:22.984Z,479.00
2023-05-18T08:20:22.970Z,480.00
2023-05-18T08:21:22.991Z,482.00
2023-05-18T08:22:22.951Z,482.00
2023-05-18T08:23:22.906Z,479.00
2023-05-18T08:24:22.931Z,481.00
2023-05-18T08:25:22.946Z,481.00
2023-05-18T08:26:23.565Z,481.00
2023-05-18T08:27:22.916Z,480.00
2023-05-18T08:28:22.915Z,481.00
2023-05-18T08:29:22.922Z,480.00
2023-05-18T08:30:22.894Z,478.00
2023-05-18T08:31:23.002Z,478.00
2023-05-18T08:32:22.898Z,478.00
2023-05-18T08:33:22.868Z,477.00
2023-05-18T08:34:22.858Z,477.00
2023-05-18T08:35:22.873Z,476.00
2023-05-18T08:36:22.824Z,479.00
2023-05-18T08:37:22.820Z,480.00
2023-05-18T08:38:22.807Z,481.00
2023-05-18T08:39:22.831Z,484.00
2023-05-18T08:40:22.881Z,485.00
2023-05-18T08:41:22.977Z,487.00
2023-05-18T08:42:24.464Z,486.00
2023-05-18T08:43:22.929Z,487.00
2023-05-18T08:44:22.938Z,486.00
2023-05-18T08:45:22.943Z,486.00
2023-05-18T08:46:22.891Z,488.00
2023-05-18T08:47:22.929Z,487.00
2023-05-18T08:48:24.528Z,486.00
2023-05-18T08:49:22.889Z,485.00
2023-05-18T08:50:28.515Z,482.00
2023-05-18T08:51:23.886Z,480.00
2023-05-18T08:52:22.847Z,479.00
2023-05-18T08:53:22.835Z,479.00
2023-05-18T08:54:22.866Z,480.00
2023-05-18T08:55:23.084Z,479.00
2023-05-18T08:56:22.856Z,479.00
2023-05-18T08:57:22.864Z,479.00
2023-05-18T08:58:22.820Z,480.00
2023-05-18T08:59:22.827Z,480.00
2023-05-18T09:00:24.262Z,483.00
2023-05-18T09:01:22.854Z,484.00
2023-05-18T09:02:22.814Z,482.00
2023-05-18T09:03:22.799Z,480.00
2023-05-18T09:04:22.827Z,477.00
2023-05-18T09:05:22.918Z,478.00
2023-05-18T09:06:24.077Z,479.00
2023-05-18T09:07:22.777Z,479.00
2023-05-18T09:08:22.790Z,480.00
2023-05-18T09:09:22.760Z,481.00
2023-05-18T09:10:22.815Z,478.00
2023-05-18T09:11:22.750Z,479.00
2023-05-18T09:12:24.360Z,480.00
2023-05-18T09:13:22.804Z,479.00
2023-05-18T09:14:22.768Z,478.00
2023-05-18T09:15:22.823Z,480.00
2023-05-18T09:16:22.861Z,481.00
2023-05-18T09:17:22.890Z,480.00
2023-05-18T09:18:24.986Z,480.00
2023-05-18T09:19:22.894Z,477.00
2023-05-18T09:20:23.074Z,476.00
2023-05-18T09:21:22.875Z,476.00
2023-05-18T09:22:22.849Z,475.00
2023-05-18T09:23:22.849Z,475.00
2023-05-18T09:24:24.534Z,476.00
2023-05-18T09:25:22.817Z,475.00
2023-05-18T09:26:22.839Z,475.00
2023-05-18T09:27:22.830Z,475.00
2023-05-18T09:28:22.817Z,477.00
2023-05-18T09:29:22.830Z,478.00
2023-05-18T09:30:22.799Z,478.00
2023-05-18T09:31:22.805Z,477.00
2023-05-18T09:32:22.781Z,479.00
2023-05-18T09:33:22.823Z,479.00
2023-05-18T09:34:22.753Z,480.00
2023-05-18T09:35:23.097Z,481.00
2023-05-18T09:36:22.733Z,479.00
2023-05-18T09:37:22.778Z,480.00
2023-05-18T09:38:22.790Z,479.00
2023-05-18T09:39:22.785Z,479.00
2023-05-18T09:40:23.071Z,481.00
2023-05-18T09:41:22.834Z,482.00
2023-05-18T09:42:24.124Z,481.00
2023-05-18T09:43:22.925Z,479.00
2023-05-18T09:44:22.945Z,480.00
2023-05-18T09:45:22.946Z,479.00
2023-05-18T09:46:23.031Z,479.00
2023-05-18T09:47:23.006Z,479.00
2023-05-18T09:48:25.007Z,478.00
2023-05-18T09:49:23.035Z,476.00
2023-05-18T09:50:23.577Z,475.00
2023-05-18T09:51:23.078Z,474.00
2023-05-18T09:52:23.103Z,476.00
2023-05-18T09:53:23.125Z,476.00
2023-05-18T09:54:24.393Z,479.00
2023-05-18T09:55:23.218Z,477.00
2023-05-18T09:56:23.214Z,478.00
2023-05-18T09:57:23.240Z,479.00
2023-05-18T09:58:23.231Z,476.00
2023-05-18T09:59:23.281Z,477.00
2023-05-18T10:00:25.488Z,479.00
2023-05-18T10:01:23.455Z,481.00
2023-05-18T10:02:23.376Z,479.00
2023-05-18T10:03:23.401Z,479.00
2023-05-18T10:04:23.401Z,480.00
2023-05-18T10:05:23.453Z,481.00
2023-05-18T10:06:23.442Z,482.00
2023-05-18T10:07:23.457Z,483.00
2023-05-18T10:08:23.512Z,481.00
2023-05-18T10:09:23.497Z,480.00
2023-05-18T10:10:23.535Z,479.00
2023-05-18T10:11:23.552Z,477.00
2023-05-18T10:12:23.574Z,476.00
2023-05-18T10:13:23.575Z,474.00
2023-05-18T10:14:23.649Z,475.00
2023-05-18T10:15:23.711Z,474.00
2023-05-18T10:16:23.696Z,474.00
2023-05-18T10:17:23.714Z,476.00
2023-05-18T10:18:23.708Z,478.00
2023-05-18T10:19:23.728Z,477.00
2023-05-18T10:20:24.062Z,476.00
2023-05-18T10:21:23.774Z,474.00
2023-05-18T10:22:23.784Z,471.00
2023-05-18T10:23:23.831Z,471.00
2023-05-18T10:24:23.865Z,471.00
2023-05-18T10:25:23.861Z,470.00
2023-05-18T10:26:23.863Z,472.00
2023-05-18T10:27:23.901Z,475.00
2023-05-18T10:28:23.951Z,475.00
2023-05-18T10:29:23.911Z,475.00
2023-05-18T10:30:24.041Z,474.00
2023-05-18T10:31:23.995Z,473.00
2023-05-18T10:32:23.978Z,476.00
2023-05-18T10:33:29.181Z,477.00
2023-05-18T10:34:25.014Z,479.00
2023-05-18T10:35:24.030Z,478.00
2023-05-18T10:36:23.973Z,478.00
2023-05-18T10:37:23.977Z,476.00
2023-05-18T10:38:23.953Z,476.00
2023-05-18T10:39:23.988Z,477.00
2023-05-18T10:40:24.084Z,476.00
2023-05-18T10:41:23.933Z,477.00
2023-05-18T10:42:23.959Z,475.00
2023-05-18T10:43:24.191Z,475.00
2023-05-18T10:44:23.930Z,472.00
2023-05-18T10:45:24.113Z,472.00
2023-05-18T10:46:24.069Z,473.00
2023-05-18T10:47:24.003Z,471.00
2023-05-18T10:48:23.940Z,473.00
2023-05-18T10:49:23.939Z,474.00
2023-05-18T10:50:23.913Z,475.00
2023-05-18T10:51:23.904Z,476.00
2023-05-18T10:52:23.885Z,477.00
2023-05-18T10:53:23.847Z,479.00
2023-05-18T10:54:23.880Z,480.00
2023-05-18T10:55:23.874Z,477.00
2023-05-18T10:56:23.895Z,476.00
2023-05-18T10:57:23.947Z,476.00
2023-05-18T10:58:23.917Z,476.00
2023-05-18T10:59:23.957Z,475.00
2023-05-18T11:00:24.088Z,476.00
2023-05-18T11:01:24.133Z,474.00
2023-05-18T11:02:24.057Z,475.00
2023-05-18T11:03:24.045Z,474.00
2023-05-18T11:04:24.060Z,475.00
2023-05-18T11:05:24.206Z,472.00
2023-05-18T11:06:24.116Z,471.00
2023-05-18T11:07:24.121Z,470.00
2023-05-18T11:08:24.124Z,470.00
2023-05-18T11:09:24.135Z,470.00
2023-05-18T11:10:24.607Z,472.00
2023-05-18T11:11:24.171Z,471.00
2023-05-18T11:12:24.190Z,471.00
2023-05-18T11:13:24.184Z,467.00
2023-05-18T11:14:24.222Z,466.00
2023-05-18T11:15:24.580Z,467.00
2023-05-18T11:16:24.273Z,467.00
2023-05-18T11:17:24.287Z,469.00
2023-05-18T11:18:24.311Z,470.00
2023-05-18T11:19:24.340Z,470.00
2023-05-18T11:20:24.598Z,470.00
2023-05-18T11:21:24.373Z,472.00
2023-05-18T11:22:24.437Z,470.00
2023-05-18T11:23:24.381Z,469.00
2023-05-18T11:24:24.432Z,466.00
2023-05-18T11:25:24.601Z,465.00
2023-05-18T11:26:24.500Z,467.00
2023-05-18T11:27:24.487Z,469.00
2023-05-18T11:28:24.532Z,469.00
2023-05-18T11:29:24.539Z,468.00
2023-05-18T11:30:24.597Z,468.00
2023-05-18T11:31:24.588Z,468.00
2023-05-18T11:32:29.974Z,466.00
2023-05-18T11:33:25.707Z,465.00
2023-05-18T11:34:24.603Z,467.00
2023-05-18T11:35:24.595Z,469.00
2023-05-18T11:36:24.583Z,471.00
2023-05-18T11:37:24.602Z,469.00
2023-05-18T11:38:24.563Z,470.00
2023-05-18T11:39:24.593Z,470.00
2023-05-18T11:40:24.568Z,473.00
2023-05-18T11:41:24.553Z,475.00
2023-05-18T11:42:24.541Z,477.00
2023-05-18T11:43:24.514Z,475.00
2023-05-18T11:44:24.579Z,476.00
2023-05-18T11:45:24.537Z,476.00
2023-05-18T11:46:24.529Z,475.00
2023-05-18T11:47:24.507Z,475.00
2023-05-18T11:48:24.610Z,476.00
2023-05-18T11:49:24.494Z,475.00
2023-05-18T11:50:24.488Z,476.00
2023-05-18T11:51:24.520Z,475.00
2023-05-18T11:52:24.538Z,475.00
2023-05-18T11:53:24.540Z,477.00
2023-05-18T11:54:24.557Z,475.00
2023-05-18T11:55:24.594Z,474.00
2023-05-18T11:56:24.590Z,473.00
2023-05-18T11:57:24.588Z,474.00
2023-05-18T11:58:24.604Z,474.00
2023-05-18T11:59:24.654Z,475.00
2023-05-18T12:00:25.103Z,476.00
2023-05-18T12:01:24.696Z,474.00
2023-05-18T12:02:24.732Z,472.00
2023-05-18T12:03:24.810Z,471.00
2023-05-18T12:04:24.761Z,474.00
2023-05-18T12:05:25.101Z,475.00
2023-05-18T12:06:24.765Z,474.00
2023-05-18T12:07:24.763Z,473.00
2023-05-18T12:08:24.822Z,475.00
2023-05-18T12:09:24.849Z,475.00
2023-05-18T12:10:24.839Z,477.00
2023-05-18T12:11:24.858Z,475.00
2023-05-18T12:12:24.898Z,472.00
2023-05-18T12:13:24.872Z,472.00
2023-05-18T12:14:24.886Z,471.00
2023-05-18T12:15:25.252Z,472.00
2023-05-18T12:16:24.993Z,471.00
2023-05-18T12:17:24.999Z,469.00
2023-05-18T12:18:24.973Z,469.00
2023-05-18T12:19:25.040Z,468.00
2023-05-18T12:20:25.127Z,468.00
2023-05-18T12:21:25.036Z,467.00
2023-05-18T12:22:25.139Z,467.00
2023-05-18T12:23:25.091Z,466.00
2023-05-18T12:24:25.080Z,465.00
2023-05-18T12:25:25.129Z,464.00
2023-05-18T12:26:25.143Z,463.00
2023-05-18T12:27:25.169Z,463.00
2023-05-18T12:28:25.180Z,465.00
2023-05-18T12:29:25.190Z,463.00
2023-05-18T12:30:25.655Z,466.00